Time;durP1;ratioP1;P1;durP2;ratioP2;P2;SDS_P1;SDS_P2;PMS_P1;PMS_P2;Temp;Humidity;BMP_temperature;BMP_pressure;BME280_temperature;BME280_humidity;BME280_pressure;Samples;Min_cycle;Max_cycle;Signal;HPM_P1;HPM_P2
2022/02/13 00:02:14;;;;;;;;;;;1.80;65.60;;;-0.11;63.07;96680.59;4965563;28;19922;-67
2022/02/13 00:04:40;;;;;;;;;;;1.80;65.70;;;-0.12;63.12;96678.13;4981493;28;19922;-67
2022/02/13 00:07:05;;;;;;;;;;;1.70;66.00;;;-0.14;62.97;96680.00;4949158;28;19944;-66
2022/02/13 00:09:31;;;;;;;;;;;1.70;66.10;;;-0.18;63.54;96676.81;4950048;28;19941;-66
2022/02/13 00:12:02;;;;;;;;;;;1.70;66.10;;;-0.21;62.92;96669.28;4958010;28;19961;-66
2022/02/13 00:14:28;;;;;;;;;;;1.70;66.10;;;-0.19;63.28;96677.75;4946545;28;19918;-66
2022/02/13 00:16:54;;;;;;;;;;;1.70;66.10;;;-0.22;63.56;96670.19;4984787;28;20374;-66
2022/02/13 00:19:20;;;;;;;;;;;1.60;66.20;;;-0.23;64.29;96672.88;4969823;28;19922;-67
2022/02/13 00:21:45;;;;;;;;;;;1.60;66.50;;;-0.25;63.38;96669.56;4952907;28;19918;-67
2022/02/13 00:24:12;;;;;;;;;;;1.60;66.40;;;-0.27;63.46;96658.50;4953266;28;19922;-68
2022/02/13 00:26:38;;;;;;;;;;;1.60;66.30;;;-0.28;63.36;96665.44;4940107;28;19925;-67
2022/02/13 00:29:04;;;;;;;;;;;1.60;66.50;;;-0.32;63.47;96661.44;4973308;28;20033;-67
2022/02/13 00:31:30;;;;;;;;;;;1.50;66.40;;;-0.35;63.99;96657.31;4956337;28;19936;-67
2022/02/13 00:33:55;;;;;;;;;;;1.50;66.70;;;-0.38;63.37;96651.53;4971846;28;20389;-68
2022/02/13 00:36:21;;;;;;;;;;;1.40;66.50;;;-0.41;64.07;96657.75;4971696;28;19937;-68
2022/02/13 00:38:47;;;;;;;;;;;1.40;66.90;;;-0.45;65.18;96647.75;4971905;28;19929;-67
2022/02/13 00:41:13;;;;;;;;;;;1.40;67.00;;;-0.48;64.15;96651.34;4988362;28;19922;-67
2022/02/13 00:43:39;;;;;;;;;;;1.40;67.10;;;-0.50;64.28;96647.22;4956310;28;20008;-67
2022/02/13 00:46:05;;;;;;;;;;;1.40;67.30;;;-0.51;64.29;96648.16;4968966;28;20488;-67
2022/02/13 00:48:30;;;;;;;;;;;1.30;67.40;;;-0.56;64.97;96647.66;4956992;28;19924;-67
2022/02/13 00:50:56;;;;;;;;;;;1.40;67.40;;;-0.58;64.52;96644.34;4983085;28;19972;-66
2022/02/13 00:53:22;;;;;;;;;;;1.30;67.50;;;-0.58;64.80;96644.34;4979164;28;20325;-67
2022/02/13 00:55:47;;;;;;;;;;;1.30;67.10;;;-0.59;65.31;96647.88;4987980;28;19918;-67
2022/02/13 00:58:13;;;;;;;;;;;1.30;67.20;;;-0.62;64.59;96639.41;4954886;28;19924;-67
2022/02/13 01:00:39;;;;;;;;;;;1.30;67.20;;;-0.59;65.08;96634.94;4970605;28;19938;-67
2022/02/13 01:03:04;;;;;;;;;;;1.30;67.10;;;-0.61;64.87;96640.22;4985469;28;19918;-67
2022/02/13 01:05:30;;;;;;;;;;;1.30;67.20;;;-0.61;64.85;96637.63;4974870;28;20313;-67
2022/02/13 01:07:56;;;;;;;;;;;1.20;67.30;;;-0.62;64.62;96633.41;4947113;28;19918;-67
2022/02/13 01:10:21;;;;;;;;;;;1.30;67.50;;;-0.64;64.77;96633.50;4959603;28;19927;-67
2022/02/13 01:12:47;;;;;;;;;;;1.30;67.60;;;-0.64;65.08;96630.09;4966516;28;20294;-67
2022/02/13 01:15:15;;;;;;;;;;;1.30;67.90;;;-0.66;65.30;96627.63;4971243;28;19918;-66
2022/02/13 01:17:41;;;;;;;;;;;1.30;67.80;;;-0.67;64.92;96635.50;4971400;28;20301;-66
2022/02/13 01:20:07;;;;;;;;;;;1.20;67.80;;;-0.70;65.71;96630.50;4971093;28;19932;-67
2022/02/13 01:22:33;;;;;;;;;;;1.20;67.90;;;-0.70;65.37;96635.69;4971365;28;20013;-67
2022/02/13 01:24:58;;;;;;;;;;;1.20;67.80;;;-0.75;64.79;96628.25;4989066;23;20380;-66
2022/02/13 01:27:24;;;;;;;;;;;1.20;67.50;;;-0.74;64.81;96640.25;4980395;28;19922;-66
2022/02/13 01:29:50;;;;;;;;;;;1.20;67.60;;;-0.74;64.82;96637.66;4981768;28;20273;-67
2022/02/13 01:32:15;;;;;;;;;;;1.10;67.40;;;-0.76;64.14;96626.59;4987475;28;19917;-66
2022/02/13 01:34:41;;;;;;;;;;;1.20;66.90;;;-0.73;64.46;96630.72;4976106;28;19921;-67
2022/02/13 01:37:06;;;;;;;;;;;1.10;66.80;;;-0.73;64.78;96638.47;4952846;28;20438;-66
2022/02/13 01:39:33;;;;;;;;;;;1.20;66.70;;;-0.72;63.96;96648.69;4963360;28;19945;-66
2022/02/13 01:41:59;;;;;;;;;;;1.20;66.70;;;-0.76;64.69;96638.69;4969043;28;20469;-66
2022/02/13 01:44:29;;;;;;;;;;;1.20;67.00;;;-0.75;65.62;96643.75;4950132;28;19918;-66
2022/02/13 01:46:54;;;;;;;;;;;1.20;67.60;;;-0.76;64.91;96633.53;4966879;28;19925;-67
2022/02/13 01:49:20;;;;;;;;;;;1.20;67.90;;;-0.79;65.65;96637.16;4936235;29;19918;-67
2022/02/13 01:51:46;;;;;;;;;;;1.10;68.00;;;-0.81;65.53;96639.03;4963132;28;20015;-67
2022/02/13 01:54:12;;;;;;;;;;;1.10;68.20;;;-0.86;65.70;96633.34;4966671;28;20370;-69
2022/02/13 01:56:38;;;;;;;;;;;1.10;68.30;;;-0.86;66.18;96630.78;4966483;28;19925;-67
2022/02/13 01:59:04;;;;;;;;;;;1.10;68.20;;;-0.92;65.50;96634.56;4967429;28;19942;-66
2022/02/13 02:01:30;;;;;;;;;;;1.00;68.30;;;-0.94;66.26;96633.84;4967019;28;20297;-66
2022/02/13 02:03:55;;;;;;;;;;;1.00;68.60;;;-0.98;66.18;96626.44;4968635;28;19918;-66
2022/02/13 02:06:21;;;;;;;;;;;1.00;68.50;;;-1.01;66.29;96621.47;4965335;28;21454;-67
2022/02/13 02:08:47;;;;;;;;;;;1.00;68.50;;;-1.00;66.21;96623.97;4950879;28;19926;-67
2022/02/13 02:11:12;;;;;;;;;;;1.00;68.40;;;-1.02;66.26;96625.00;4952805;28;19991;-67
2022/02/13 02:13:38;;;;;;;;;;;0.90;68.50;;;-1.03;66.50;96628.50;4959632;28;20349;-66
2022/02/13 02:16:04;;;;;;;;;;;0.90;68.80;;;-1.08;66.61;96617.69;4952869;28;19926;-67
2022/02/13 02:18:30;;;;;;;;;;;0.90;69.20;;;-1.07;66.56;96621.91;4965529;28;20130;-64
2022/02/13 02:21:02;;;;;;;;;;;0.80;69.40;;;-1.09;66.57;96626.34;4959061;28;19988;-67
2022/02/13 02:23:27;;;;;;;;;;;0.80;69.30;;;-1.12;66.77;96614.47;4961979;28;19924;-65
2022/02/13 02:25:53;;;;;;;;;;;0.80;69.60;;;-1.15;67.10;96616.41;4953585;28;19923;-65
2022/02/13 02:28:19;;;;;;;;;;;0.70;69.90;;;-1.22;66.87;96610.84;4937519;28;19918;-67
2022/02/13 02:30:44;;;;;;;;;;;0.60;70.20;;;-1.23;67.51;96612.63;4950032;28;19918;-65
2022/02/13 02:33:11;;;;;;;;;;;0.60;70.20;;;-1.25;66.88;96619.63;4958094;28;19918;-64
2022/02/13 02:35:38;;;;;;;;;;;0.70;70.00;;;-1.28;67.53;96609.53;4954962;28;20278;-65
2022/02/13 02:38:03;;;;;;;;;;;0.70;69.90;;;-1.25;67.18;96609.31;4965994;28;19969;-68
2022/02/13 02:40:29;;;;;;;;;;;0.70;69.50;;;-1.28;67.21;96601.78;4955096;28;19922;-67
2022/02/13 02:42:55;;;;;;;;;;;0.70;69.30;;;-1.31;67.33;96601.16;4966810;28;19957;-67
2022/02/13 02:45:21;;;;;;;;;;;0.60;69.20;;;-1.29;67.04;96601.91;4946966;28;20323;-65
2022/02/13 02:47:46;;;;;;;;;;;0.70;69.20;;;-1.32;66.65;96602.94;4949921;28;19925;-66
2022/02/13 02:50:12;;;;;;;;;;;0.60;69.20;;;-1.29;66.57;96599.31;4949371;28;19914;-67
2022/02/13 02:52:38;;;;;;;;;;;0.70;69.20;;;-1.29;67.24;96607.88;4951078;28;19926;-67
2022/02/13 02:55:05;;;;;;;;;;;0.70;69.30;;;-1.28;66.54;96606.94;4949306;28;19918;-65
2022/02/13 02:57:30;;;;;;;;;;;0.60;69.10;;;-1.28;66.38;96606.94;4958515;28;19936;-65
2022/02/13 02:59:56;;;;;;;;;;;0.60;69.40;;;-1.29;67.48;96607.88;4951201;28;19922;-67
2022/02/13 03:02:22;;;;;;;;;;;0.60;69.70;;;-1.29;66.65;96604.47;4950318;28;19925;-67
2022/02/13 03:04:47;;;;;;;;;;;0.60;69.60;;;-1.31;66.96;96609.75;4950804;28;19919;-67
2022/02/13 03:07:13;;;;;;;;;;;0.60;69.80;;;-1.34;66.97;96615.13;4952704;28;19925;-66
2022/02/13 03:09:39;;;;;;;;;;;0.60;69.70;;;-1.41;66.95;96608.69;4961792;28;19918;-65
2022/02/13 03:12:05;;;;;;;;;;;0.60;69.80;;;-1.39;67.00;96612.00;4974328;28;19921;-65
2022/02/13 03:14:30;;;;;;;;;;;0.50;69.70;;;-1.42;67.09;96611.38;4953954;28;19933;-65
2022/02/13 03:16:56;;;;;;;;;;;0.50;69.70;;;-1.43;67.18;96610.56;4956286;28;20010;-65
2022/02/13 03:19:22;;;;;;;;;;;0.50;69.60;;;-1.44;67.30;96608.91;4957564;28;19926;-66
2022/02/13 03:21:47;;;;;;;;;;;0.50;69.80;;;-1.48;67.54;96607.47;4955199;28;19988;-65
2022/02/13 03:24:13;;;;;;;;;;;0.50;69.50;;;-1.48;66.70;96609.22;4963260;28;19925;-65
2022/02/13 03:26:39;;;;;;;;;;;0.50;69.20;;;-1.48;66.84;96596.31;4965977;28;20302;-64
2022/02/13 03:29:05;;;;;;;;;;;0.50;69.20;;;-1.50;66.44;96604.16;4966267;28;19918;-67
2022/02/13 03:31:30;;;;;;;;;;;0.50;69.20;;;-1.53;66.89;96604.38;4960316;28;19917;-68
2022/02/13 03:33:56;;;;;;;;;;;0.40;69.40;;;-1.49;67.18;96610.97;4949438;28;19977;-67
2022/02/13 03:36:22;;;;;;;;;;;0.50;69.20;;;-1.49;66.67;96610.97;4951202;28;19929;-64
2022/02/13 03:38:48;;;;;;;;;;;0.50;69.30;;;-1.46;66.91;96612.50;4965624;28;19917;-65
2022/02/13 03:41:13;;;;;;;;;;;0.60;69.20;;;-1.47;66.87;96610.88;4965887;28;19925;-66
2022/02/13 03:43:39;;;;;;;;;;;0.50;68.90;;;-1.49;66.02;96610.13;4954055;28;19918;-65
2022/02/13 03:46:04;;;;;;;;;;;0.50;68.80;;;-1.49;66.33;96610.97;4948750;28;19942;-65
2022/02/13 03:48:30;;;;;;;;;;;0.50;68.90;;;-1.50;66.54;96609.31;4947659;28;20295;-65
2022/02/13 03:50:56;;;;;;;;;;;0.40;69.00;;;-1.51;66.92;96596.53;4948913;28;19962;-65
2022/02/13 03:53:22;;;;;;;;;;;0.50;69.00;;;-1.51;67.13;96605.09;4965174;28;19980;-65
2022/02/13 03:55:48;;;;;;;;;;;0.50;69.20;;;-1.51;67.46;96594.78;4950005;28;19966;-65
2022/02/13 03:58:13;;;;;;;;;;;0.50;69.10;;;-1.53;67.42;96599.22;4948734;28;19919;-65
2022/02/13 04:00:39;;;;;;;;;;;0.50;69.20;;;-1.53;66.98;96599.22;4953965;28;19922;-65
2022/02/13 04:03:05;;;;;;;;;;;0.40;69.30;;;-1.55;66.96;96596.72;4968964;28;20370;-65
2022/02/13 04:05:30;;;;;;;;;;;0.40;69.30;;;-1.56;66.84;96597.66;4950995;28;19927;-65
2022/02/13 04:07:56;;;;;;;;;;;0.40;69.40;;;-1.58;67.28;96601.28;4966775;28;19918;-66
2022/02/13 04:10:22;;;;;;;;;;;0.40;69.50;;;-1.58;67.46;96598.69;4967918;28;19921;-65
2022/02/13 04:12:47;;;;;;;;;;;0.40;69.40;;;-1.60;67.03;96601.34;4958056;28;19915;-67
2022/02/13 04:15:13;;;;;;;;;;;0.40;69.20;;;-1.57;66.74;96600.34;4949551;28;19927;-64
2022/02/13 04:17:39;;;;;;;;;;;0.40;69.00;;;-1.59;66.95;96594.44;4953030;28;20429;-66
2022/02/13 04:20:05;;;;;;;;;;;0.40;69.20;;;-1.58;67.37;96596.13;4952005;28;19922;-64
2022/02/13 04:22:31;;;;;;;;;;;0.40;69.60;;;-1.58;68.01;96596.13;4952401;28;19926;-64
2022/02/13 04:24:57;;;;;;;;;;;0.40;69.90;;;-1.59;67.61;96589.28;4957799;28;19972;-65
2022/02/13 04:27:22;;;;;;;;;;;0.40;69.90;;;-1.62;67.09;96585.16;4968884;28;19928;-65
2022/02/13 04:29:48;;;;;;;;;;;0.40;69.50;;;-1.61;67.06;96583.41;4953034;28;20017;-65
2022/02/13 04:32:14;;;;;;;;;;;0.40;69.00;;;-1.61;67.64;96579.06;4951036;28;19961;-66
2022/02/13 04:34:41;;;;;;;;;;;0.40;69.00;;;-1.63;66.93;96575.75;4964225;28;20334;-65
2022/02/13 04:37:06;;;;;;;;;;;0.40;69.00;;;-1.61;66.97;96580.81;4971021;28;20370;-65
2022/02/13 04:39:32;;;;;;;;;;;0.30;68.50;;;-1.64;66.41;96570.72;4968063;28;19937;-68
2022/02/13 04:41:58;;;;;;;;;;;0.30;68.40;;;-1.66;66.40;96575.16;4967084;28;20386;-65
2022/02/13 04:44:23;;;;;;;;;;;0.40;68.40;;;-1.64;66.20;96586.19;4943638;28;19969;-68
2022/02/13 04:46:49;;;;;;;;;;;0.30;68.50;;;-1.64;66.21;96570.72;4964639;28;19918;-65
2022/02/13 04:49:15;;;;;;;;;;;0.20;68.30;;;-1.66;66.49;96573.41;4971087;28;20499;-64
2022/02/13 04:51:40;;;;;;;;;;;0.20;68.70;;;-1.71;65.87;96570.31;4954311;28;19929;-65
2022/02/13 04:54:06;;;;;;;;;;;0.10;69.10;;;-1.75;66.33;96573.19;4968669;28;19980;-64
2022/02/13 04:56:32;;;;;;;;;;;0.10;69.50;;;-1.83;67.02;96571.09;4954351;28;19918;-65
2022/02/13 04:58:57;;;;;;;;;;;0.10;69.90;;;-1.88;67.66;96568.84;4954149;28;20410;-66
2022/02/13 05:01:23;;;;;;;;;;;0.10;70.00;;;-1.86;67.17;96577.28;4968352;28;19919;-65
2022/02/13 05:03:49;;;;;;;;;;;0.10;69.90;;;-1.88;67.32;96568.00;4953679;28;19940;-65
2022/02/13 05:06:14;;;;;;;;;;;0.10;69.50;;;-1.89;66.46;96566.34;4966238;28;20017;-66
2022/02/13 05:08:40;;;;;;;;;;;0.00;69.20;;;-1.87;66.94;96569.66;4952049;28;20309;-65
2022/02/13 05:11:05;;;;;;;;;;;0.10;69.00;;;-1.90;66.40;96567.28;4970362;28;19924;-66
2022/02/13 05:13:31;;;;;;;;;;;0.10;69.00;;;-1.87;67.45;96569.66;4964172;28;19937;-65
2022/02/13 05:15:57;;;;;;;;;;;0.10;69.40;;;-1.85;67.31;96568.63;4953994;28;19918;-67
2022/02/13 05:18:22;;;;;;;;;;;0.10;69.70;;;-1.83;66.91;96578.00;4964224;28;19960;-65
2022/02/13 05:20:48;;;;;;;;;;;0.20;69.60;;;-1.85;67.65;96568.63;4953527;28;19922;-67
2022/02/13 05:23:14;;;;;;;;;;;0.20;69.40;;;-1.88;67.32;96565.44;4942311;29;20382;-66
2022/02/13 05:25:39;;;;;;;;;;;0.10;69.40;;;-1.89;67.46;96567.19;4952902;28;19926;-64
2022/02/13 05:28:05;;;;;;;;;;;0.10;69.40;;;-1.91;67.17;96557.91;4951781;28;19918;-65
2022/02/13 05:30:31;;;;;;;;;;;0.10;68.90;;;-1.91;66.70;96558.72;4951719;28;19928;-67
2022/02/13 05:32:56;;;;;;;;;;;0.10;68.60;;;-1.90;67.13;96551.81;4952158;28;20310;-66
2022/02/13 05:35:22;;;;;;;;;;;0.20;68.80;;;-1.90;66.94;96552.63;4951226;28;19962;-65
2022/02/13 05:37:48;;;;;;;;;;;0.10;69.10;;;-1.86;67.79;96566.97;4953380;28;19918;-65
2022/02/13 05:40:14;;;;;;;;;;;0.20;70.20;;;-1.83;69.36;96560.78;4958720;28;19922;-65
2022/02/13 05:42:40;;;;;;;;;;;0.30;71.20;;;-1.81;67.35;96556.38;4970827;28;20354;-66
2022/02/13 05:45:06;;;;;;;;;;;0.30;69.50;;;-1.81;67.24;96545.22;4970941;28;19925;-64
2022/02/13 05:47:32;;;;;;;;;;;0.30;68.90;;;-1.80;67.32;96549.47;4948544;28;19985;-66
2022/02/13 05:49:57;;;;;;;;;;;0.30;68.80;;;-1.82;67.20;96548.72;4971040;28;19918;-65
2022/02/13 05:52:23;;;;;;;;;;;0.30;68.30;;;-1.82;65.78;96551.28;4957159;28;19922;-66
2022/02/13 05:54:49;;;;;;;;;;;0.20;67.20;;;-1.83;66.18;96550.47;4940071;28;20298;-66
2022/02/13 05:57:14;;;;;;;;;;;0.20;66.90;;;-1.83;65.98;96554.81;4966035;28;19934;-69
2022/02/13 05:59:40;;;;;;;;;;;0.20;67.20;;;-1.83;65.21;96559.97;4945144;28;19986;-69
2022/02/13 06:02:06;;;;;;;;;;;0.20;66.90;;;-1.85;65.21;96558.31;4953650;28;19918;-68
2022/02/13 06:04:31;;;;;;;;;;;0.20;66.20;;;-1.82;63.73;96559.84;4934391;29;20620;-66
2022/02/13 06:06:57;;;;;;;;;;;0.20;64.00;;;-1.77;61.67;96559.56;4935398;29;19919;-65
2022/02/13 06:09:23;;;;;;;;;;;0.30;62.30;;;-1.78;62.13;96552.78;4961489;28;19992;-67
2022/02/13 06:11:49;;;;;;;;;;;0.30;62.70;;;-1.73;62.29;96561.03;4948742;28;19961;-65
2022/02/13 06:14:14;;;;;;;;;;;0.30;63.00;;;-1.73;62.17;96554.09;4961517;28;19918;-66
2022/02/13 06:16:40;;;;;;;;;;;0.30;62.50;;;-1.71;60.93;96554.00;4966735;28;19977;-65
2022/02/13 06:19:06;;;;;;;;;;;0.30;61.60;;;-1.68;61.83;96566.69;4950748;28;20397;-65
2022/02/13 06:21:31;;;;;;;;;;;0.40;62.30;;;-1.70;62.10;96555.66;4966199;28;19926;-66
2022/02/13 06:23:57;;;;;;;;;;;0.40;62.30;;;-1.66;62.25;96562.25;4950763;28;19918;-66
2022/02/13 06:26:23;;;;;;;;;;;0.40;62.60;;;-1.66;62.40;96557.91;4965970;28;19929;-65
2022/02/13 06:28:50;;;;;;;;;;;0.40;62.50;;;-1.66;62.01;96560.50;4951144;28;19923;-67
2022/02/13 06:31:16;;;;;;;;;;;0.40;62.60;;;-1.68;62.36;96553.78;4953323;28;20306;-67
2022/02/13 06:33:41;;;;;;;;;;;0.40;62.90;;;-1.69;62.50;96552.16;4950603;28;19918;-66
2022/02/13 06:36:07;;;;;;;;;;;0.40;63.00;;;-1.68;62.43;96546.06;4950011;28;19914;-67
2022/02/13 06:38:33;;;;;;;;;;;0.40;62.40;;;-1.67;62.61;96550.28;4950261;28;20354;-66
2022/02/13 06:40:58;;;;;;;;;;;0.40;62.80;;;-1.70;62.85;96545.34;4940637;28;19922;-67
2022/02/13 06:43:24;;;;;;;;;;;0.40;63.30;;;-1.68;63.59;96549.47;4958331;28;19969;-66
2022/02/13 06:45:50;;;;;;;;;;;0.40;63.50;;;-1.66;63.42;96541.63;4951472;28;19925;-67
2022/02/13 06:48:15;;;;;;;;;;;0.40;63.60;;;-1.68;62.92;96535.75;4951177;28;20529;-66
2022/02/13 06:50:41;;;;;;;;;;;0.50;63.30;;;-1.64;62.78;96547.50;4965918;28;19923;-66
2022/02/13 06:53:07;;;;;;;;;;;0.50;62.80;;;-1.61;62.99;96545.53;4958863;28;19922;-65
2022/02/13 06:55:32;;;;;;;;;;;0.60;63.20;;;-1.61;63.09;96544.72;4954270;28;19932;-66
2022/02/13 06:57:58;;;;;;;;;;;0.60;63.00;;;-1.61;62.93;96534.38;4934679;29;20405;-68
2022/02/13 07:00:24;;;;;;;;;;;0.60;63.10;;;-1.58;63.33;96549.69;4965160;28;19926;-64
2022/02/13 07:02:49;;;;;;;;;;;0.60;63.70;;;-1.59;63.34;96542.84;4948045;28;19924;-69
2022/02/13 07:05:15;;;;;;;;;;;0.60;63.40;;;-1.56;63.24;96550.41;4936592;28;19924;-68
2022/02/13 07:07:41;;;;;;;;;;;0.60;63.60;;;-1.53;62.16;96552.78;4965913;28;19923;-68
2022/02/13 07:10:08;;;;;;;;;;;0.70;62.00;;;-1.49;62.60;96549.06;4950382;28;19918;-69
2022/02/13 07:12:34;;;;;;;;;;;0.70;62.40;;;-1.45;62.29;96544.50;4965308;28;19933;-66
2022/02/13 07:14:59;;;;;;;;;;;0.90;61.70;;;-1.38;62.00;96550.88;4959967;28;20302;-67
2022/02/13 07:17:25;;;;;;;;;;;0.90;61.40;;;-1.28;63.07;96542.44;4941259;29;19922;-66
2022/02/13 07:19:51;;;;;;;;;;;1.10;62.60;;;-1.16;62.55;96552.81;4951266;28;20466;-65
2022/02/13 07:22:17;;;;;;;;;;;1.30;62.20;;;-1.08;63.30;96542.81;4956008;28;19923;-66
2022/02/13 07:24:42;;;;;;;;;;;1.50;62.60;;;-0.94;64.09;96540.91;4933521;29;19925;-68
2022/02/13 07:27:08;;;;;;;;;;;1.70;62.70;;;-0.82;64.46;96541.81;4950080;28;19918;-66
2022/02/13 07:29:34;;;;;;;;;;;2.00;62.70;;;-0.65;64.70;96538.03;4965561;28;20303;-68
2022/02/13 07:32:00;;;;;;;;;;;2.20;62.40;;;-0.51;64.12;96544.78;4950352;28;19945;-68
2022/02/13 07:34:26;;;;;;;;;;;2.50;61.80;;;-0.36;63.61;96535.94;4951926;28;19944;-68
2022/02/13 07:36:55;;;;;;;;;;;2.70;60.90;;;-0.19;62.24;96527.78;4952213;28;19922;-68
2022/02/13 07:39:21;;;;;;;;;;;3.00;58.50;;;0.05;62.14;96532.09;4953773;28;19926;-69
2022/02/13 07:41:47;;;;;;;;;;;3.40;57.50;;;0.30;59.99;96519.78;4953340;28;19918;-68
2022/02/13 07:44:12;;;;;;;;;;;3.70;54.50;;;0.55;58.37;96523.94;4951533;28;19925;-67
2022/02/13 07:46:38;;;;;;;;;;;4.10;52.70;;;0.77;58.59;96517.94;4953716;28;19922;-68
2022/02/13 07:49:05;;;;;;;;;;;4.50;51.80;;;0.97;58.59;96524.16;4959983;28;19917;-67
2022/02/13 07:51:32;;;;;;;;;;;4.80;51.50;;;1.16;58.89;96508.03;4968857;28;19926;-65
2022/02/13 07:53:58;;;;;;;;;;;5.10;50.80;;;1.39;58.55;96519.16;4954545;28;19918;-67
2022/02/13 07:56:24;;;;;;;;;;;5.40;50.10;;;1.59;57.95;96515.78;4951960;28;19926;-70
2022/02/13 07:58:50;;;;;;;;;;;5.70;49.50;;;1.79;56.22;96507.19;4960923;28;19924;-70
2022/02/13 08:01:19;;;;;;;;;;;6.00;47.20;;;2.01;55.57;96500.25;4969163;28;19962;-70
2022/02/13 08:03:45;;;;;;;;;;;6.30;46.10;;;2.23;55.04;96502.72;4951315;28;19925;-66
2022/02/13 08:06:12;;;;;;;;;;;6.50;45.50;;;2.47;54.81;96505.03;4950113;28;19941;-69
2022/02/13 08:08:38;;;;;;;;;;;6.80;44.20;;;2.65;53.25;96494.88;4960497;28;19974;-68
2022/02/13 08:11:04;;;;;;;;;;;7.00;43.00;;;2.89;53.11;96484.16;4938095;28;19924;-68
2022/02/13 08:13:30;;;;;;;;;;;7.20;42.70;;;3.11;51.89;96485.72;4937539;29;19922;-67
2022/02/13 08:15:56;;;;;;;;;;;7.40;41.20;;;3.26;53.25;96480.03;4967982;28;19925;-68
2022/02/13 08:18:22;;;;;;;;;;;7.60;42.20;;;3.41;53.20;96475.28;4936862;28;19918;-69
2022/02/13 08:20:47;;;;;;;;;;;7.70;42.40;;;3.55;52.95;96479.25;4954498;28;19922;-69
2022/02/13 08:23:13;;;;;;;;;;;7.90;42.00;;;3.72;53.35;96485.53;4961613;28;20320;-69
2022/02/13 08:25:42;;;;;;;;;;;8.10;42.60;;;3.90;52.98;96476.09;4967939;28;19925;-69
2022/02/13 08:28:08;;;;;;;;;;;8.30;42.20;;;4.09;52.73;96476.06;4968713;28;19965;-69
2022/02/13 08:30:33;;;;;;;;;;;8.60;41.40;;;4.26;51.67;96467.53;4952035;28;19953;-68
2022/02/13 08:33:00;;;;;;;;;;;8.80;40.10;;;4.50;52.01;96471.44;4948888;28;20350;-68
2022/02/13 08:35:25;;;;;;;;;;;9.00;41.00;;;4.64;51.76;96473.59;4954652;28;19922;-68
2022/02/13 08:37:51;;;;;;;;;;;8.90;40.80;;;4.83;53.29;96467.47;4945141;29;19922;-68
2022/02/13 08:40:17;;;;;;;;;;;9.10;41.60;;;5.02;52.97;96477.00;4953307;28;20009;-68
2022/02/13 08:42:43;;;;;;;;;;;9.30;41.90;;;5.18;51.88;96454.50;4955148;28;20318;-68
2022/02/13 08:45:08;;;;;;;;;;;9.50;41.00;;;5.38;51.27;96465.66;4952999;28;20024;-68
2022/02/13 08:47:34;;;;;;;;;;;9.70;40.30;;;5.58;50.77;96452.47;4953736;28;19934;-68
2022/02/13 08:50:00;;;;;;;;;;;9.90;39.50;;;5.76;51.29;96455.91;4956281;28;19918;-67
2022/02/13 08:52:25;;;;;;;;;;;10.10;39.90;;;6.01;51.43;96449.94;4953041;28;19927;-69
2022/02/13 08:54:51;;;;;;;;;;;10.60;39.20;;;6.23;51.57;96451.22;4964804;28;19918;-69
2022/02/13 08:57:17;;;;;;;;;;;10.90;38.70;;;6.49;50.56;96443.38;4952750;28;20046;-69
2022/02/13 08:59:43;;;;;;;;;;;11.40;37.90;;;6.80;49.46;96435.88;4951559;28;19922;-69
2022/02/13 09:02:08;;;;;;;;;;;12.10;36.40;;;7.12;49.90;96437.78;4946692;28;19926;-68
2022/02/13 09:04:35;;;;;;;;;;;12.60;36.00;;;7.49;49.05;96442.63;4937241;28;19934;-68
2022/02/13 09:07:01;;;;;;;;;;;13.20;34.60;;;7.83;48.95;96434.63;4959902;28;19918;-68
2022/02/13 09:09:28;;;;;;;;;;;13.60;34.10;;;8.13;47.75;96427.06;4967929;28;19929;-66
2022/02/13 09:11:53;;;;;;;;;;;13.90;32.80;;;8.43;47.94;96421.16;4953793;28;19981;-68
2022/02/13 09:14:19;;;;;;;;;;;14.30;32.40;;;8.76;46.99;96426.31;4952348;28;19945;-65
2022/02/13 09:16:45;;;;;;;;;;;14.60;31.80;;;9.10;46.17;96429.44;4952285;28;19919;-69
2022/02/13 09:19:11;;;;;;;;;;;14.90;30.80;;;9.45;45.59;96420.22;4953357;28;19918;-68
2022/02/13 09:21:37;;;;;;;;;;;15.40;30.50;;;9.78;45.53;96422.63;4953243;28;19925;-68
2022/02/13 09:24:03;;;;;;;;;;;15.80;29.60;;;10.13;44.57;96415.94;4951934;28;20001;-66
2022/02/13 09:26:28;;;;;;;;;;;16.30;28.90;;;10.45;43.43;96406.94;4966773;28;20449;-71
2022/02/13 09:28:54;;;;;;;;;;;16.70;28.30;;;10.80;43.75;96397.50;4952015;28;20447;-69
2022/02/13 09:31:19;;;;;;;;;;;17.30;28.30;;;11.10;43.75;96397.47;4967688;28;19919;-69
2022/02/13 09:33:45;;;;;;;;;;;17.70;27.40;;;11.39;41.22;96391.31;4953292;28;19918;-68
2022/02/13 09:36:12;;;;;;;;;;;18.00;26.10;;;11.65;43.05;96387.13;4935224;28;19922;-68
2022/02/13 09:38:38;;;;;;;;;;;18.80;25.90;;;11.94;42.07;96388.00;4955002;28;19938;-67
2022/02/13 09:41:05;;;;;;;;;;;19.10;25.20;;;12.13;41.63;96374.16;4958267;28;19931;-70
2022/02/13 09:43:31;;;;;;;;;;;19.90;24.80;;;12.43;41.29;96373.97;4967113;28;20008;-71
2022/02/13 09:45:58;;;;;;;;;;;20.60;24.40;;;12.75;41.86;96372.53;4951394;28;20032;-72
2022/02/13 09:48:26;;;;;;;;;;;21.20;23.80;;;13.05;42.01;96370.41;4951867;28;19922;-70
2022/02/13 09:50:52;;;;;;;;;;;21.90;23.30;;;13.39;38.89;96359.81;4945595;28;19922;-70
2022/02/13 09:53:18;;;;;;;;;;;22.80;20.30;;;13.85;38.42;96361.69;4951305;28;19919;-69
2022/02/13 09:55:44;;;;;;;;;;;23.60;19.30;;;14.27;38.71;96357.81;4961941;28;20440;-71
2022/02/13 09:58:09;;;;;;;;;;;24.00;18.60;;;14.69;37.78;96351.22;4950312;28;19993;-70
2022/02/13 10:00:55;;;;;;;;;;;24.00;17.80;;;15.25;37.74;96350.59;4950969;28;19997;-72
2022/02/13 10:03:27;;;;;;;;;;;25.00;17.50;;;15.76;35.48;96344.41;4950801;28;19925;-72
2022/02/13 10:05:54;;;;;;;;;;;25.50;16.70;;;16.29;36.46;96345.78;4960935;28;19954;-71
2022/02/13 10:08:37;;;;;;;;;;;26.50;15.90;;;16.87;36.07;96338.28;4951743;28;19922;-68
2022/02/13 10:11:09;;;;;;;;;;;27.50;15.30;;;17.36;33.23;96341.75;4947404;28;19933;-67
2022/02/13 10:13:42;;;;;;;;;;;28.10;14.40;;;17.88;35.20;96336.72;4952258;28;19926;-68
2022/02/13 10:16:17;;;;;;;;;;;29.00;14.10;;;18.35;33.72;96325.09;4965256;28;20004;-66
2022/02/13 10:18:50;;;;;;;;;;;29.40;13.70;;;18.87;33.67;96316.34;4949496;28;19940;-69
2022/02/13 10:21:35;;;;;;;;;;;30.50;13.20;;;19.49;34.73;96329.81;4967458;28;19922;-66
2022/02/13 10:24:29;;;;;;;;;;;31.40;12.80;;;19.93;36.39;96314.88;4967527;28;19925;-67
2022/02/13 10:27:07;;;;;;;;;;;32.10;12.40;;;20.33;33.28;96313.84;4953155;28;19918;-67
2022/02/13 10:29:37;;;;;;;;;;;32.60;11.90;;;20.65;32.10;96304.19;4951766;28;20382;-69
2022/02/13 10:32:20;;;;;;;;;;;32.60;12.10;;;21.03;31.27;96307.84;4935068;29;19919;-68
2022/02/13 10:35:16;;;;;;;;;;;33.50;11.80;;;21.42;31.74;96310.47;4937923;28;19918;-68
2022/02/13 10:38:00;;;;;;;;;;;33.60;11.10;;;21.72;32.04;96308.06;4952840;28;19922;-68
2022/02/13 10:40:27;;;;;;;;;;;33.80;11.40;;;22.04;32.28;96297.41;4952360;28;20349;-67
2022/02/13 10:43:03;;;;;;;;;;;34.90;11.00;;;22.35;30.90;96292.25;4945980;28;19969;-68
2022/02/13 10:45:30;;;;;;;;;;;34.90;10.90;;;22.45;31.45;96285.09;4951233;28;20013;-67
2022/02/13 10:48:04;;;;;;;;;;;34.20;11.50;;;22.79;31.87;96279.34;4950558;28;19955;-72
2022/02/13 10:50:32;;;;;;;;;;;35.40;10.90;;;23.08;30.43;96264.47;4964948;28;19922;-72
2022/02/13 10:52:59;;;;;;;;;;;36.10;10.60;;;23.40;31.11;96266.16;4966471;28;19919;-71
2022/02/13 10:55:25;;;;;;;;;;;36.20;10.90;;;23.61;34.04;96253.59;4949523;28;19926;-70
2022/02/13 10:57:51;;;;;;;;;;;36.00;10.70;;;23.65;29.82;96244.72;4963060;28;19922;-71
2022/02/13 11:00:17;;;;;;;;;;;35.00;11.50;;;23.79;30.13;96248.50;4956749;28;19929;-68
2022/02/13 11:02:44;;;;;;;;;;;34.80;11.30;;;23.93;29.63;96242.56;4950032;28;19926;-68
2022/02/13 11:05:10;;;;;;;;;;;34.50;11.70;;;23.88;30.22;96234.53;4940947;28;19945;-72
2022/02/13 11:07:44;;;;;;;;;;;33.10;12.10;;;23.68;30.17;96229.97;4951543;28;19926;-68
2022/02/13 11:10:14;;;;;;;;;;;32.10;12.90;;;23.45;29.92;96223.22;4949521;28;19922;-67
2022/02/13 11:12:42;;;;;;;;;;;31.40;13.30;;;23.02;29.42;96227.16;4949970;28;19922;-69
2022/02/13 11:15:18;;;;;;;;;;;30.50;14.30;;;22.83;30.42;96218.78;4949889;28;19997;-70
2022/02/13 11:17:46;;;;;;;;;;;30.60;14.10;;;22.76;30.25;96212.81;4948859;28;20690;-71
2022/02/13 11:20:15;;;;;;;;;;;31.40;13.90;;;22.69;30.49;96214.97;4947640;28;19937;-71
2022/02/13 11:22:42;;;;;;;;;;;31.50;14.00;;;22.70;29.93;96203.16;4937576;28;19918;-71